createdAt,value
2022-10-10T00:01:50.753Z,5.97
2022-10-10T00:04:25.483Z,4.97
2022-10-10T00:06:53.201Z,3.65
2022-10-10T00:09:19.869Z,3.95
2022-10-10T00:11:47.272Z,5.00
2022-10-10T00:14:13.939Z,5.28
2022-10-10T00:16:40.515Z,7.38
2022-10-10T00:19:07.199Z,4.25
2022-10-10T00:21:35.025Z,4.57
2022-10-10T00:24:05.338Z,3.00
2022-10-10T00:26:39.467Z,5.00
2022-10-10T00:29:07.835Z,4.60
2022-10-10T00:31:34.381Z,3.75
2022-10-10T00:34:02.857Z,4.65
2022-10-10T00:36:30.851Z,5.72
2022-10-10T00:38:59.558Z,3.95
2022-10-10T00:41:27.488Z,4.40
2022-10-10T00:44:04.968Z,6.10
2022-10-10T00:46:32.769Z,4.30
2022-10-10T00:49:00.018Z,6.18
2022-10-10T00:51:26.809Z,3.55
2022-10-10T00:54:04.218Z,5.75
2022-10-10T00:56:33.395Z,2.80
2022-10-10T00:59:02.145Z,5.47
2022-10-10T01:01:29.140Z,2.90
2022-10-10T01:03:59.787Z,4.63
2022-10-10T01:06:26.905Z,4.32
2022-10-10T01:08:53.703Z,5.38
2022-10-10T01:11:41.184Z,4.75
2022-10-10T01:14:13.568Z,4.07
2022-10-10T01:16:50.380Z,2.65
2022-10-10T01:19:29.470Z,5.75
2022-10-10T01:22:05.278Z,4.20
2022-10-10T01:24:34.817Z,3.53
2022-10-10T01:27:14.268Z,3.75
2022-10-10T01:29:47.598Z,4.07
2022-10-10T01:32:15.427Z,5.97
2022-10-10T01:35:12.071Z,5.55
2022-10-10T01:37:38.884Z,3.80
2022-10-10T01:40:18.069Z,5.03
2022-10-10T01:42:53.601Z,4.95
2022-10-10T01:45:20.630Z,3.35
2022-10-10T01:47:48.343Z,3.95
2022-10-10T01:50:17.587Z,3.35
2022-10-10T01:52:55.779Z,4.15
2022-10-10T01:55:34.101Z,5.00
2022-10-10T01:58:32.782Z,5.25
2022-10-10T02:01:03.645Z,6.15
2022-10-10T02:03:32.494Z,3.72
2022-10-10T02:06:21.054Z,3.67
2022-10-10T02:09:07.956Z,3.70
2022-10-10T02:11:37.860Z,6.97
2022-10-10T02:14:31.374Z,6.05
2022-10-10T02:17:00.890Z,3.55
2022-10-10T02:19:28.382Z,4.82
2022-10-10T02:21:56.733Z,4.53
2022-10-10T02:24:24.688Z,6.38
2022-10-10T02:27:00.135Z,4.13
2022-10-10T02:29:32.300Z,4.05
2022-10-10T02:31:59.041Z,4.30
2022-10-10T02:34:28.346Z,5.95
2022-10-10T02:37:00.723Z,4.05
2022-10-10T02:39:30.030Z,5.05
2022-10-10T02:41:59.198Z,4.03
2022-10-10T02:44:27.093Z,5.53
2022-10-10T02:46:54.780Z,4.20
2022-10-10T02:49:27.004Z,5.05
2022-10-10T02:51:56.512Z,5.75
2022-10-10T02:54:24.988Z,3.75
2022-10-10T02:56:52.596Z,5.78
2022-10-10T02:59:20.790Z,4.72
2022-10-10T03:01:47.541Z,5.32
2022-10-10T03:04:15.288Z,4.20
2022-10-10T03:06:41.983Z,4.28
2022-10-10T03:09:10.179Z,5.10
2022-10-10T03:11:36.809Z,6.78
2022-10-10T03:14:03.350Z,3.58
2022-10-10T03:16:29.994Z,3.20
2022-10-10T03:18:56.581Z,4.03
2022-10-10T03:21:23.405Z,4.32
2022-10-10T03:23:51.265Z,4.15
2022-10-10T03:26:21.821Z,4.75
2022-10-10T03:28:49.868Z,9.95
2022-10-10T03:31:17.482Z,8.20
2022-10-10T03:33:45.400Z,3.67
2022-10-10T03:36:14.621Z,9.38
2022-10-10T03:38:43.474Z,3.28
2022-10-10T03:41:13.797Z,5.97
2022-10-10T03:43:41.418Z,4.15
2022-10-10T03:46:11.375Z,3.47
2022-10-10T03:48:41.465Z,3.58
2022-10-10T03:51:09.704Z,5.80
2022-10-10T03:53:37.070Z,4.25
2022-10-10T03:56:05.469Z,4.47
2022-10-10T03:58:32.317Z,3.75
2022-10-10T04:01:01.285Z,4.30
2022-10-10T04:03:28.337Z,5.68
2022-10-10T04:05:56.483Z,8.57
2022-10-10T04:08:25.091Z,6.50
2022-10-10T04:10:54.994Z,5.20
2022-10-10T04:13:22.582Z,4.95
2022-10-10T04:15:55.858Z,5.68
2022-10-10T04:18:23.072Z,5.65
2022-10-10T04:20:49.705Z,7.45
2022-10-10T04:23:16.352Z,4.70
2022-10-10T04:25:44.767Z,4.05
2022-10-10T04:28:12.452Z,4.43
2022-10-10T04:30:39.478Z,6.65
2022-10-10T04:33:06.136Z,8.98
2022-10-10T04:35:32.662Z,7.80
2022-10-10T04:37:59.288Z,5.60
2022-10-10T04:40:28.033Z,8.45
2022-10-10T04:42:55.171Z,8.65
2022-10-10T04:45:22.226Z,7.03
2022-10-10T04:47:49.942Z,5.97
2022-10-10T04:50:16.577Z,8.05
2022-10-10T04:52:43.156Z,7.78
2022-10-10T04:55:09.751Z,5.80
2022-10-10T04:57:36.214Z,4.50
2022-10-10T05:00:07.146Z,6.22
2022-10-10T05:02:35.684Z,5.55
2022-10-10T05:05:03.717Z,7.65
2022-10-10T05:07:30.292Z,6.10
2022-10-10T05:09:58.051Z,9.63
2022-10-10T05:12:25.462Z,4.85
2022-10-10T05:14:51.953Z,3.63
2022-10-10T05:17:19.108Z,5.82
2022-10-10T05:19:45.502Z,4.25
2022-10-10T05:22:12.127Z,5.68
2022-10-10T05:24:39.011Z,5.38
2022-10-10T05:27:05.630Z,5.68
2022-10-10T05:29:32.046Z,5.80
2022-10-10T05:31:58.471Z,5.00
2022-10-10T05:34:25.043Z,6.53
2022-10-10T05:36:51.528Z,6.88
2022-10-10T05:39:17.973Z,12.02
2022-10-10T05:41:44.376Z,8.77
2022-10-10T05:44:11.511Z,9.23
2022-10-10T05:46:37.923Z,9.15
2022-10-10T05:49:04.363Z,9.82
2022-10-10T05:51:30.820Z,13.88
2022-10-10T05:53:58.877Z,8.32
2022-10-10T05:56:27.909Z,7.55
2022-10-10T05:58:54.564Z,10.77
2022-10-10T06:01:20.991Z,6.13
2022-10-10T06:03:52.629Z,8.88
2022-10-10T06:06:19.329Z,8.85
2022-10-10T06:08:45.816Z,6.53
2022-10-10T06:11:12.304Z,7.50
2022-10-10T06:13:39.017Z,8.70
2022-10-10T06:16:05.534Z,7.22
2022-10-10T06:18:31.969Z,6.38
2022-10-10T06:21:01.573Z,10.13
2022-10-10T06:23:29.008Z,6.72
2022-10-10T06:25:57.505Z,6.22
2022-10-10T06:28:24.127Z,6.25
2022-10-10T06:30:50.724Z,6.65
2022-10-10T06:33:19.711Z,7.88
2022-10-10T06:35:47.778Z,7.18
2022-10-10T06:38:15.210Z,7.70
2022-10-10T06:40:42.300Z,9.00
2022-10-10T06:43:14.341Z,16.15
2022-10-10T06:45:43.593Z,6.93
2022-10-10T06:48:10.562Z,6.47
2022-10-10T06:50:37.559Z,8.40
2022-10-10T06:53:04.085Z,6.40
2022-10-10T06:55:33.568Z,7.47
2022-10-10T06:58:00.557Z,6.93
2022-10-10T07:00:27.825Z,6.07
2022-10-10T07:02:57.428Z,10.75
2022-10-10T07:05:24.139Z,8.20
2022-10-10T07:07:51.554Z,9.32
2022-10-10T07:10:18.162Z,7.75
2022-10-10T07:12:45.257Z,6.57
2022-10-10T07:15:12.051Z,8.52
2022-10-10T07:17:38.869Z,7.13
2022-10-10T07:20:05.934Z,6.13
2022-10-10T07:22:32.526Z,8.15
2022-10-10T07:25:02.249Z,7.50
2022-10-10T07:27:28.929Z,14.13
2022-10-10T07:29:55.634Z,10.25
2022-10-10T07:32:22.769Z,10.05
2022-10-10T07:34:50.867Z,9.07
2022-10-10T07:37:19.845Z,6.47
2022-10-10T07:39:47.763Z,8.18
2022-10-10T07:42:14.415Z,5.82
2022-10-10T07:44:43.018Z,9.40
2022-10-10T07:47:09.585Z,8.32
2022-10-10T07:49:36.218Z,6.57
2022-10-10T07:52:03.292Z,7.60
2022-10-10T07:54:30.288Z,9.65
2022-10-10T07:56:56.967Z,7.63
2022-10-10T07:59:24.186Z,8.20
2022-10-10T08:01:55.912Z,8.10
2022-10-10T08:04:25.901Z,11.85
2022-10-10T08:06:52.335Z,8.80
2022-10-10T08:09:18.761Z,8.82
2022-10-10T08:11:45.189Z,9.73
2022-10-10T08:14:11.701Z,8.50
2022-10-10T08:16:38.408Z,8.82
2022-10-10T08:19:04.931Z,7.43
2022-10-10T08:21:31.581Z,9.52
2022-10-10T08:23:58.305Z,7.20
2022-10-10T08:26:24.856Z,8.25
2022-10-10T08:28:51.450Z,8.93
2022-10-10T08:31:21.470Z,8.95
2022-10-10T08:33:48.459Z,7.55
2022-10-10T08:36:22.247Z,8.60
2022-10-10T08:38:49.034Z,8.00
2022-10-10T08:41:24.564Z,8.85
2022-10-10T08:43:55.039Z,10.07
2022-10-10T08:46:33.841Z,8.35
2022-10-10T08:49:13.136Z,7.88
2022-10-10T08:51:45.015Z,11.00
2022-10-10T08:54:13.438Z,9.80
2022-10-10T08:56:41.102Z,9.88
2022-10-10T08:59:15.281Z,11.93
2022-10-10T09:02:17.615Z,7.32
2022-10-10T09:04:32.557Z,8.95
2022-10-10T09:07:02.428Z,8.88
2022-10-10T09:09:43.207Z,7.63
2022-10-10T09:12:21.699Z,12.23
2022-10-10T09:14:51.037Z,8.13
2022-10-10T09:17:36.275Z,9.15
2022-10-10T09:20:12.120Z,8.13
2022-10-10T09:22:47.727Z,11.25
2022-10-10T09:25:33.159Z,8.57
2022-10-10T09:28:08.676Z,7.10
2022-10-10T09:30:37.342Z,7.38
2022-10-10T09:33:07.963Z,7.20
2022-10-10T09:35:36.044Z,10.63
2022-10-10T09:38:05.282Z,9.73
2022-10-10T09:40:34.523Z,10.52
2022-10-10T09:43:10.866Z,9.30
2022-10-10T09:45:39.262Z,8.63
2022-10-10T09:48:05.902Z,8.77
2022-10-10T09:50:32.559Z,10.45
2022-10-10T09:52:59.509Z,10.55
2022-10-10T09:55:33.827Z,5.95
2022-10-10T09:58:23.570Z,8.68
2022-10-10T10:00:50.475Z,7.85
2022-10-10T10:03:18.296Z,8.32
2022-10-10T10:05:59.067Z,8.85
2022-10-10T10:08:30.608Z,9.07
2022-10-10T10:10:58.239Z,8.63
2022-10-10T10:13:27.080Z,7.72
2022-10-10T10:16:04.759Z,7.63
2022-10-10T10:18:37.387Z,8.40
2022-10-10T10:21:10.102Z,6.75
2022-10-10T10:23:48.924Z,9.90
2022-10-10T10:26:21.340Z,8.30
2022-10-10T10:28:49.036Z,7.03
2022-10-10T10:31:41.429Z,8.77
2022-10-10T10:34:11.340Z,7.43
2022-10-10T10:36:56.692Z,7.93
2022-10-10T10:39:41.534Z,8.27
2022-10-10T10:42:19.391Z,6.28
2022-10-10T10:44:51.046Z,9.35
2022-10-10T10:47:41.242Z,6.13
2022-10-10T10:50:16.940Z,17.17
2022-10-10T10:52:43.415Z,5.90
2022-10-10T10:55:25.849Z,6.55
2022-10-10T10:58:37.131Z,6.85
2022-10-10T11:01:33.748Z,6.25
2022-10-10T11:05:16.403Z,4.53
2022-10-10T11:07:20.070Z,11.18
2022-10-10T11:09:50.914Z,12.68
2022-10-10T11:12:20.455Z,6.65
2022-10-10T11:14:56.438Z,8.13
2022-10-10T11:17:22.928Z,7.78
2022-10-10T11:19:56.706Z,5.97
2022-10-10T11:22:28.770Z,7.22
2022-10-10T11:25:05.486Z,5.50
2022-10-10T11:27:44.821Z,10.32
2022-10-10T11:30:19.580Z,10.02
2022-10-10T11:33:07.096Z,5.65
2022-10-10T11:35:37.621Z,7.07
2022-10-10T11:38:11.852Z,7.88
2022-10-10T11:40:46.681Z,6.00
2022-10-10T11:43:31.880Z,8.95
2022-10-10T11:46:05.589Z,6.72
2022-10-10T11:48:37.709Z,8.10
2022-10-10T11:51:12.831Z,8.98
2022-10-10T11:53:43.527Z,6.57
2022-10-10T11:56:28.776Z,6.05
2022-10-10T11:59:07.493Z,9.93
2022-10-10T12:01:37.636Z,5.47
2022-10-10T12:04:04.734Z,8.07
2022-10-10T12:06:43.521Z,7.57
2022-10-10T12:09:24.987Z,9.93
2022-10-10T12:12:11.865Z,8.20
2022-10-10T12:14:41.600Z,6.53
2022-10-10T12:17:18.471Z,11.60
2022-10-10T12:19:47.358Z,10.57
2022-10-10T12:22:22.624Z,8.10
2022-10-10T12:25:15.194Z,6.47
2022-10-10T12:27:44.761Z,10.32
2022-10-10T12:30:15.490Z,9.15
2022-10-10T12:32:47.862Z,15.00
2022-10-10T12:35:31.425Z,9.00
2022-10-10T12:38:17.847Z,9.60
2022-10-10T12:41:08.162Z,5.13
2022-10-10T12:43:39.819Z,6.95
2022-10-10T12:46:09.641Z,4.90
2022-10-10T12:48:36.860Z,7.63
2022-10-10T12:51:04.041Z,8.43
2022-10-10T12:53:32.693Z,10.38
2022-10-10T12:56:03.058Z,8.07
2022-10-10T12:58:31.114Z,9.43
2022-10-10T13:01:04.055Z,8.35
2022-10-10T13:03:43.117Z,6.28
2022-10-10T13:06:28.283Z,6.97
2022-10-10T13:08:55.541Z,13.07
2022-10-10T13:11:24.015Z,7.38
2022-10-10T13:13:52.724Z,11.45
2022-10-10T13:16:20.939Z,8.00
2022-10-10T13:18:52.083Z,8.98
2022-10-10T13:21:20.739Z,8.38
2022-10-10T13:26:37.341Z,7.78
2022-10-10T13:29:16.005Z,7.72
2022-10-10T13:31:43.348Z,6.97
2022-10-10T13:34:12.594Z,11.38
2022-10-10T13:36:39.131Z,11.15
2022-10-10T13:39:05.716Z,10.38
2022-10-10T13:41:32.208Z,9.77
2022-10-10T13:43:58.659Z,9.68
2022-10-10T13:46:32.332Z,10.20
2022-10-10T13:48:59.044Z,13.90
2022-10-10T13:51:48.144Z,8.57
2022-10-10T13:54:33.910Z,9.35
2022-10-10T13:57:01.997Z,12.65
2022-10-10T13:59:29.696Z,11.02
2022-10-10T14:02:00.712Z,12.98
2022-10-10T14:04:50.291Z,12.25
2022-10-10T14:07:22.846Z,9.52
2022-10-10T14:09:59.208Z,12.75
2022-10-10T14:12:45.481Z,7.40
2022-10-10T14:15:33.921Z,10.30
2022-10-10T14:18:01.506Z,9.38
2022-10-10T14:20:28.049Z,11.65
2022-10-10T14:22:54.467Z,10.98
2022-10-10T14:25:20.932Z,13.18
2022-10-10T14:27:47.364Z,7.47
2022-10-10T14:30:14.478Z,10.00
2022-10-10T14:32:40.942Z,7.30
2022-10-10T14:35:07.487Z,8.65
2022-10-10T14:37:38.990Z,14.55
2022-10-10T14:40:17.207Z,11.07
2022-10-10T14:42:44.123Z,7.78
2022-10-10T14:45:13.162Z,10.13
2022-10-10T14:47:39.905Z,10.70
2022-10-10T14:50:24.239Z,9.82
2022-10-10T14:52:51.176Z,8.23
2022-10-10T14:55:19.656Z,9.73
2022-10-10T14:57:46.238Z,13.68
2022-10-10T15:00:17.066Z,13.02
2022-10-10T15:02:45.784Z,8.05
2022-10-10T15:05:12.762Z,14.35
2022-10-10T15:07:39.284Z,12.10
2022-10-10T15:12:52.649Z,9.02
2022-10-10T15:15:19.133Z,10.02
2022-10-10T15:17:45.720Z,10.38
2022-10-10T15:20:12.464Z,7.15
2022-10-10T15:22:39.271Z,8.65
2022-10-10T15:25:06.749Z,8.70
2022-10-10T15:27:33.375Z,14.10
2022-10-10T15:29:59.887Z,6.95
2022-10-10T15:32:26.402Z,5.28
2022-10-10T15:34:53.128Z,9.30
2022-10-10T15:37:19.783Z,9.77
2022-10-10T15:39:46.323Z,10.48
2022-10-10T15:42:17.326Z,6.25
2022-10-10T15:44:48.941Z,6.88
2022-10-10T15:47:16.745Z,6.93
2022-10-10T15:49:43.234Z,9.27
2022-10-10T15:52:10.198Z,9.57
2022-10-10T15:54:36.697Z,7.55
2022-10-10T15:57:03.491Z,10.52
2022-10-10T15:59:31.196Z,8.75
2022-10-10T16:01:57.614Z,10.70
2022-10-10T16:04:25.363Z,8.48
2022-10-10T16:06:54.568Z,7.65
2022-10-10T16:09:35.602Z,6.70
2022-10-10T16:12:02.335Z,9.38
2022-10-10T16:14:29.150Z,9.77
2022-10-10T16:16:55.795Z,6.70
2022-10-10T16:19:22.442Z,9.38
2022-10-10T16:21:49.004Z,8.77
2022-10-10T16:24:15.494Z,8.07
2022-10-10T16:26:42.133Z,6.18
2022-10-10T16:29:10.165Z,6.40
2022-10-10T16:31:38.987Z,10.30
2022-10-10T16:34:06.433Z,5.20
2022-10-10T16:36:33.714Z,8.70
2022-10-10T16:39:00.473Z,6.05
2022-10-10T16:41:47.128Z,7.45
2022-10-10T16:44:14.368Z,7.90
2022-10-10T16:46:40.860Z,7.97
2022-10-10T16:49:07.287Z,11.10
2022-10-10T16:51:33.895Z,11.48
2022-10-10T16:54:01.613Z,9.43
2022-10-10T16:56:28.628Z,7.15
2022-10-10T16:58:55.129Z,12.52
2022-10-10T17:01:22.645Z,7.13
2022-10-10T17:03:49.820Z,10.27
2022-10-10T17:06:19.151Z,9.60
2022-10-10T17:08:46.278Z,11.00
2022-10-10T17:11:14.498Z,12.00
2022-10-10T17:13:41.759Z,8.80
2022-10-10T17:16:47.842Z,10.00
2022-10-10T17:18:56.437Z,9.00
2022-10-10T17:21:24.668Z,5.75
2022-10-10T17:23:51.528Z,7.38
2022-10-10T17:26:19.350Z,6.10
2022-10-10T17:28:45.966Z,6.03
2022-10-10T17:31:16.477Z,6.18
2022-10-10T17:33:44.094Z,10.68
2022-10-10T17:36:13.339Z,7.00
2022-10-10T17:38:40.513Z,6.40
2022-10-10T17:41:07.712Z,9.15
2022-10-10T17:43:34.431Z,7.47
2022-10-10T17:46:21.662Z,8.85
2022-10-10T17:48:48.091Z,7.20
2022-10-10T17:51:16.035Z,6.40
2022-10-10T17:53:42.860Z,8.07
2022-10-10T17:56:11.768Z,10.85
2022-10-10T17:58:38.252Z,8.60
2022-10-10T18:01:04.887Z,5.20
2022-10-10T18:03:31.683Z,4.47
2022-10-10T18:06:04.146Z,2.78
2022-10-10T18:08:30.771Z,5.75
2022-10-10T18:10:57.251Z,8.95
2022-10-10T18:13:23.819Z,7.00
2022-10-10T18:16:05.902Z,4.53
2022-10-10T18:18:33.039Z,7.28
2022-10-10T18:21:04.173Z,8.50
2022-10-10T18:23:31.208Z,9.85
2022-10-10T18:26:07.988Z,9.45
2022-10-10T18:28:36.631Z,6.43
2022-10-10T18:31:12.328Z,9.88
2022-10-10T18:33:40.018Z,10.57
2022-10-10T18:36:07.458Z,8.70
2022-10-10T18:38:34.485Z,8.60
2022-10-10T18:41:14.417Z,12.48
2022-10-10T18:43:42.743Z,6.88
2022-10-10T18:46:10.569Z,14.27
2022-10-10T18:48:38.544Z,16.55
2022-10-10T18:51:07.759Z,9.32
2022-10-10T18:53:39.113Z,8.23
2022-10-10T18:56:07.185Z,9.95
2022-10-10T18:58:35.129Z,7.30
2022-10-10T19:01:04.216Z,12.68
2022-10-10T19:03:33.311Z,8.85
2022-10-10T19:06:03.480Z,13.43
2022-10-10T19:08:31.818Z,11.32
2022-10-10T19:11:01.462Z,14.63
2022-10-10T19:13:29.355Z,8.73
2022-10-10T19:15:56.429Z,9.13
2022-10-10T19:18:23.255Z,11.45
2022-10-10T19:20:51.431Z,9.48
2022-10-10T19:23:23.598Z,13.07
2022-10-10T19:25:55.821Z,9.90
2022-10-10T19:28:22.851Z,9.82
2022-10-10T19:30:49.525Z,13.50
2022-10-10T19:33:17.406Z,15.30
2022-10-10T19:35:49.898Z,10.57
2022-10-10T19:38:21.181Z,11.25
2022-10-10T19:40:48.698Z,9.30
2022-10-10T19:43:20.078Z,11.40
2022-10-10T19:45:48.553Z,11.90
2022-10-10T19:48:15.825Z,17.92
2022-10-10T19:50:43.434Z,8.48
2022-10-10T19:53:11.350Z,13.75
2022-10-10T19:55:38.383Z,13.50
2022-10-10T19:58:05.199Z,10.35
2022-10-10T20:00:32.655Z,11.18
2022-10-10T20:02:59.570Z,12.15
2022-10-10T20:05:26.220Z,12.63
2022-10-10T20:07:53.218Z,7.10
2022-10-10T20:10:20.844Z,13.23
2022-10-10T20:12:47.786Z,11.50
2022-10-10T20:15:14.440Z,11.93
2022-10-10T20:17:41.354Z,11.15
2022-10-10T20:20:08.418Z,10.27
2022-10-10T20:22:35.167Z,14.93
2022-10-10T20:25:08.512Z,9.85
2022-10-10T20:27:35.355Z,8.40
2022-10-10T20:30:02.208Z,8.98
2022-10-10T20:32:30.076Z,8.40
2022-10-10T20:34:56.666Z,11.38
2022-10-10T20:37:23.193Z,11.63
2022-10-10T20:39:49.764Z,14.18
2022-10-10T20:42:16.425Z,9.25
2022-10-10T20:44:43.284Z,10.75
2022-10-10T20:47:11.496Z,8.95
2022-10-10T20:49:39.111Z,13.95
2022-10-10T20:52:07.958Z,10.48
2022-10-10T20:54:36.211Z,10.60
2022-10-10T20:57:03.115Z,9.52
2022-10-10T20:59:30.677Z,19.67
2022-10-10T21:01:57.441Z,11.60
2022-10-10T21:04:25.559Z,11.48
2022-10-10T21:06:52.212Z,11.73
2022-10-10T21:09:18.844Z,8.73
2022-10-10T21:11:50.620Z,11.43
2022-10-10T21:14:17.457Z,9.27
2022-10-10T21:16:45.131Z,12.02
2022-10-10T21:19:12.084Z,13.27
2022-10-10T21:21:40.622Z,17.85
2022-10-10T21:24:10.974Z,10.88
2022-10-10T21:26:39.032Z,11.20
2022-10-10T21:29:05.744Z,10.18
2022-10-10T21:31:33.436Z,10.40
2022-10-10T21:34:02.106Z,11.65
2022-10-10T21:36:30.870Z,19.92
2022-10-10T21:38:58.089Z,23.63
2022-10-10T21:41:25.208Z,27.35
2022-10-10T21:43:56.562Z,15.55
2022-10-10T21:46:35.940Z,11.93
2022-10-10T21:49:07.974Z,13.90
2022-10-10T21:51:38.011Z,16.33
2022-10-10T21:54:04.732Z,17.98
2022-10-10T21:56:31.467Z,11.50
2022-10-10T21:59:01.273Z,11.52
2022-10-10T22:01:28.826Z,15.32
2022-10-10T22:04:01.733Z,13.23
2022-10-10T22:06:31.948Z,10.82
2022-10-10T22:08:59.310Z,10.55
2022-10-10T22:11:27.285Z,13.68
2022-10-10T22:13:54.300Z,13.57
2022-10-10T22:16:21.161Z,16.17
2022-10-10T22:18:47.690Z,13.90
2022-10-10T22:21:16.864Z,9.30
2022-10-10T22:23:44.784Z,12.43
2022-10-10T22:26:14.068Z,10.13
2022-10-10T22:28:40.964Z,11.18
2022-10-10T22:31:09.044Z,14.18
2022-10-10T22:33:35.662Z,12.60
2022-10-10T22:36:02.839Z,11.52
2022-10-10T22:38:30.339Z,11.45
2022-10-10T22:40:56.973Z,11.95
2022-10-10T22:43:26.806Z,16.05
2022-10-10T22:45:53.923Z,13.52
2022-10-10T22:48:20.499Z,8.82
2022-10-10T22:50:48.582Z,10.60
2022-10-10T22:53:16.595Z,9.02
2022-10-10T22:55:43.341Z,11.20
2022-10-10T22:58:09.989Z,12.73
2022-10-10T23:00:36.604Z,12.23
2022-10-10T23:03:03.238Z,13.20
2022-10-10T23:05:30.136Z,11.65
2022-10-10T23:07:56.764Z,11.55
2022-10-10T23:10:23.405Z,11.25
2022-10-10T23:12:50.010Z,8.43
2022-10-10T23:15:16.597Z,10.77
2022-10-10T23:17:44.566Z,15.13
2022-10-10T23:20:11.259Z,12.20
2022-10-10T23:22:37.908Z,13.13
2022-10-10T23:25:04.763Z,8.93
2022-10-10T23:27:31.478Z,12.60
2022-10-10T23:29:58.040Z,12.35
2022-10-10T23:32:29.362Z,9.45
2022-10-10T23:34:56.503Z,10.63
2022-10-10T23:37:23.299Z,14.15
2022-10-10T23:39:51.308Z,9.68
2022-10-10T23:42:17.871Z,13.20
2022-10-10T23:44:44.567Z,13.40
2022-10-10T23:47:11.239Z,10.27
2022-10-10T23:49:37.948Z,11.18
2022-10-10T23:52:04.707Z,9.00
2022-10-10T23:54:31.373Z,9.48
2022-10-10T23:56:58.160Z,11.60
2022-10-10T23:59:25.516Z,9.02
